Alvordton, Ohio
Current Conditions -  °F | °C
As of 3:35 PM on Thursday 29 Jan 2015 (Local Time) from KUSE Reporting Station
Light Snow Light Snow  
Wind Chill: 25°   Ceiling: 1900
Heat Index: 34°   Visibility: 5mi
Dew Point: 32°   Wind: 13mph
Humidity: 93%   Direction: 310°NW
Pressure: 29.79"   Gusts: NA
Location:  41.67°N, 84.44°W
Report Text: KUSE 292035Z AUTO 31011KT 5SM -SN BKN019 OVC043 01/00 A2979 RMK AO2
Loading
Personal Weather Stations






























Interactive Weather Map New forecast layout! Learn more

10-Day Weather Forecast

Advertisements
Track Severe Weather on mobile